Time;durP1;ratioP1;P1;durP2;ratioP2;P2;SDS_P1;SDS_P2;PMS_P1;PMS_P2;Temp;Humidity;BMP_temperature;BMP_pressure;BME280_temperature;BME280_humidity;BME280_pressure;Samples;Min_cycle;Max_cycle;Signal;HPM_P1;HPM_P2
2020/12/19 00:00:20;;;;;;;8.57;7.47;;;8.40;99.90;;;;;;5056672;28;20183;-72
2020/12/19 00:02:46;;;;;;;8.20;7.30;;;8.40;99.90;;;;;;5056467;28;20174;-72
2020/12/19 00:05:11;;;;;;;8.90;6.93;;;8.40;99.90;;;;;;5053017;28;20195;-72
2020/12/19 00:07:37;;;;;;;8.00;6.97;;;8.40;99.90;;;;;;5037297;28;20186;-72
2020/12/19 00:10:04;;;;;;;9.30;8.40;;;8.40;99.90;;;;;;5037007;28;20260;-72
2020/12/19 00:12:30;;;;;;;8.10;7.13;;;8.50;99.90;;;;;;5041940;28;20196;-72
2020/12/19 00:14:56;;;;;;;8.43;6.90;;;8.50;99.90;;;;;;5055694;28;20935;-72
2020/12/19 00:17:22;;;;;;;7.27;6.57;;;8.50;99.90;;;;;;5056447;28;20430;-72
2020/12/19 00:19:47;;;;;;;8.03;6.70;;;8.50;99.90;;;;;;5048831;28;20175;-72
2020/12/19 00:22:13;;;;;;;7.80;6.67;;;8.50;99.90;;;;;;5037079;28;20207;-72
2020/12/19 00:24:39;;;;;;;10.40;6.50;;;8.50;99.90;;;;;;5036604;28;20512;-72
2020/12/19 00:27:11;;;;;;;8.10;7.37;;;8.50;99.90;;;;;;5045735;28;20195;-72
2020/12/19 00:29:38;;;;;;;9.30;6.80;;;8.50;99.90;;;;;;5055920;28;20854;-72
2020/12/19 00:32:03;;;;;;;7.20;6.50;;;8.50;99.90;;;;;;5055757;28;20415;-72
2020/12/19 00:34:30;;;;;;;8.00;6.90;;;8.50;99.90;;;;;;5043180;28;20449;-72
2020/12/19 00:36:55;;;;;;;7.63;6.50;;;8.50;99.90;;;;;;5036290;28;20241;-71
2020/12/19 00:39:21;;;;;;;10.90;7.80;;;8.50;99.90;;;;;;5047858;28;20411;-72
2020/12/19 00:41:46;;;;;;;11.73;6.80;;;8.50;99.90;;;;;;5041523;28;20179;-72
2020/12/19 00:44:12;;;;;;;7.67;6.90;;;8.50;99.90;;;;;;5054262;28;20181;-72
2020/12/19 00:46:37;;;;;;;6.83;6.00;;;8.50;99.90;;;;;;5055929;28;20190;-72
2020/12/19 00:49:04;;;;;;;9.27;6.83;;;8.50;99.90;;;;;;5039457;28;20179;-71
2020/12/19 00:51:30;;;;;;;8.40;6.90;;;8.50;99.90;;;;;;5048028;28;20186;-72
2020/12/19 00:53:56;;;;;;;9.07;7.20;;;8.50;99.90;;;;;;5039988;28;20488;-72
2020/12/19 00:56:26;;;;;;;9.47;7.43;;;8.60;99.90;;;;;;5054477;28;20957;-72
2020/12/19 00:58:53;;;;;;;8.87;7.50;;;8.60;99.90;;;;;;5055757;28;20178;-72
2020/12/19 01:01:23;;;;;;;13.27;7.40;;;8.60;99.90;;;;;;5039122;28;20483;-71
2020/12/19 01:03:49;;;;;;;9.10;8.17;;;8.50;99.90;;;;;;5056168;28;20436;-72
2020/12/19 01:06:16;;;;;;;10.87;7.77;;;8.50;99.90;;;;;;5038157;28;20465;-72
2020/12/19 01:08:44;;;;;;;8.17;7.27;;;8.50;99.90;;;;;;5040208;28;20428;-72
2020/12/19 01:11:14;;;;;;;9.10;7.50;;;8.50;99.90;;;;;;5056257;28;20429;-71
2020/12/19 01:13:41;;;;;;;9.70;7.20;;;8.50;99.90;;;;;;5044301;28;20525;-72
2020/12/19 01:16:06;;;;;;;8.70;7.80;;;8.50;99.90;;;;;;5034638;28;20856;-72
2020/12/19 01:18:32;;;;;;;11.10;7.73;;;8.50;99.90;;;;;;5044140;28;20458;-72
2020/12/19 01:20:57;;;;;;;8.93;7.30;;;8.50;99.90;;;;;;5049975;28;20652;-71
2020/12/19 01:23:23;;;;;;;9.40;7.50;;;8.50;99.90;;;;;;5054567;28;20182;-71
2020/12/19 01:25:48;;;;;;;9.43;7.50;;;8.50;99.90;;;;;;5054865;28;20695;-71
2020/12/19 01:28:14;;;;;;;9.20;8.10;;;8.50;99.90;;;;;;5054282;28;20171;-71
2020/12/19 01:30:39;;;;;;;10.27;7.00;;;8.50;99.90;;;;;;5043296;28;20183;-71
2020/12/19 01:33:05;;;;;;;9.80;7.70;;;8.50;99.90;;;;;;5035268;28;20202;-71
2020/12/19 01:35:30;;;;;;;11.97;8.00;;;8.50;99.90;;;;;;5034894;28;20219;-71
2020/12/19 01:37:56;;;;;;;9.13;8.23;;;8.50;99.90;;;;;;5048466;28;20224;-71
2020/12/19 01:40:22;;;;;;;15.60;9.67;;;8.50;99.90;;;;;;5054220;28;20277;-71
2020/12/19 01:42:47;;;;;;;10.60;8.70;;;8.50;99.90;;;;;;5055072;28;20244;-71
2020/12/19 01:45:13;;;;;;;10.83;9.37;;;8.50;99.90;;;;;;5039289;28;20211;-71
2020/12/19 01:47:38;;;;;;;9.77;8.57;;;8.50;99.90;;;;;;5046419;28;20260;-71
2020/12/19 01:50:07;;;;;;;10.70;8.73;;;8.50;99.90;;;;;;5040509;28;20564;-71
2020/12/19 01:52:35;;;;;;;10.53;8.80;;;8.50;99.90;;;;;;5051119;28;20524;-71
2020/12/19 01:55:01;;;;;;;12.67;9.40;;;8.40;99.90;;;;;;5054519;28;20786;-71
2020/12/19 01:57:30;;;;;;;11.43;9.13;;;8.40;99.90;;;;;;5045898;28;20475;-71
2020/12/19 01:59:55;;;;;;;13.67;9.47;;;8.40;99.90;;;;;;5034950;28;20614;-71
2020/12/19 02:02:25;;;;;;;11.70;9.33;;;8.40;99.90;;;;;;5034691;28;20501;-72
2020/12/19 02:04:51;;;;;;;12.80;9.53;;;8.40;99.90;;;;;;5043121;28;20220;-72
2020/12/19 02:07:18;;;;;;;13.20;9.03;;;8.40;99.90;;;;;;5050299;28;20428;-71
2020/12/19 02:09:44;;;;;;;11.87;9.57;;;8.50;99.90;;;;;;5052579;28;20416;-71
2020/12/19 02:12:10;;;;;;;10.23;8.90;;;8.50;99.90;;;;;;5048423;28;20418;-71
2020/12/19 02:14:37;;;;;;;10.23;8.60;;;8.50;99.90;;;;;;5034491;28;20463;-71
2020/12/19 02:17:05;;;;;;;10.87;9.27;;;8.50;99.90;;;;;;5034558;28;20504;-71
2020/12/19 02:19:31;;;;;;;11.70;9.23;;;8.50;99.90;;;;;;5034575;28;20431;-71
2020/12/19 02:21:58;;;;;;;11.53;10.20;;;8.50;99.90;;;;;;5035514;28;20437;-72
2020/12/19 02:24:25;;;;;;;11.93;9.27;;;8.50;99.90;;;;;;5049086;28;20422;-71
2020/12/19 02:26:53;;;;;;;10.63;9.03;;;8.50;99.90;;;;;;5036420;28;20445;-71
2020/12/19 02:29:19;;;;;;;13.53;9.50;;;8.50;99.90;;;;;;5049525;28;20423;-71
2020/12/19 02:31:46;;;;;;;10.70;9.60;;;8.50;99.90;;;;;;5045957;28;20769;-71
2020/12/19 02:34:12;;;;;;;11.30;9.53;;;8.50;99.90;;;;;;5040797;28;20476;-72
2020/12/19 02:36:38;;;;;;;11.57;9.27;;;8.50;99.90;;;;;;5034251;28;20549;-71
2020/12/19 02:39:05;;;;;;;11.07;9.10;;;8.50;99.90;;;;;;5034396;28;20422;-71
2020/12/19 02:41:34;;;;;;;11.77;9.63;;;8.50;99.90;;;;;;5042557;28;20489;-72
2020/12/19 02:43:59;;;;;;;13.10;10.40;;;8.50;99.90;;;;;;5033994;28;20419;-72
2020/12/19 02:46:25;;;;;;;12.13;10.10;;;8.50;99.90;;;;;;5033857;28;20454;-71
2020/12/19 02:48:51;;;;;;;10.83;8.50;;;8.50;99.90;;;;;;5051121;28;20257;-71
2020/12/19 02:51:16;;;;;;;12.17;9.60;;;8.50;99.90;;;;;;5053608;28;20174;-71
2020/12/19 02:53:42;;;;;;;12.93;10.33;;;8.50;99.90;;;;;;5052956;28;20198;-71
2020/12/19 02:56:08;;;;;;;12.10;9.80;;;8.50;99.90;;;;;;5045543;28;20612;-72
2020/12/19 02:58:34;;;;;;;10.40;9.00;;;8.60;99.90;;;;;;5053210;28;20444;-71
2020/12/19 03:01:00;;;;;;;12.70;10.47;;;8.60;99.90;;;;;;5050435;28;21752;-71
2020/12/19 03:03:26;;;;;;;14.13;10.83;;;8.60;99.90;;;;;;5033793;28;20175;-71
2020/12/19 03:05:51;;;;;;;12.10;10.40;;;8.50;99.90;;;;;;5032806;28;20449;-71
2020/12/19 03:08:17;;;;;;;12.07;9.70;;;8.50;99.90;;;;;;5037826;28;20174;-72
2020/12/19 03:10:42;;;;;;;12.50;11.00;;;8.50;99.90;;;;;;5037035;28;20176;-71
2020/12/19 03:13:08;;;;;;;12.60;11.23;;;8.50;99.90;;;;;;5053369;28;20643;-71
2020/12/19 03:15:34;;;;;;;14.07;11.03;;;8.50;99.90;;;;;;5048494;28;20218;-71
2020/12/19 03:17:59;;;;;;;12.70;10.17;;;8.50;99.90;;;;;;5052906;28;20523;-71
2020/12/19 03:20:25;;;;;;;16.10;11.43;;;8.50;99.90;;;;;;5052921;28;20174;-71
2020/12/19 03:22:50;;;;;;;12.80;10.17;;;8.50;99.90;;;;;;5044849;28;20217;-71
2020/12/19 03:25:16;;;;;;;13.37;11.30;;;8.50;99.90;;;;;;5033193;28;20221;-71
2020/12/19 03:27:41;;;;;;;14.47;11.87;;;8.50;99.90;;;;;;5033427;28;20179;-72
2020/12/19 03:30:07;;;;;;;12.83;10.10;;;8.50;99.90;;;;;;5043040;28;20182;-71
2020/12/19 03:32:32;;;;;;;13.47;10.77;;;8.50;99.90;;;;;;5038858;28;20229;-71
2020/12/19 03:34:58;;;;;;;14.43;10.50;;;8.50;99.90;;;;;;5049036;28;20310;-71
2020/12/19 03:37:24;;;;;;;11.73;10.30;;;8.50;99.90;;;;;;5041135;28;20254;-71
2020/12/19 03:39:49;;;;;;;11.73;10.40;;;8.50;99.90;;;;;;5033315;28;20207;-71
2020/12/19 03:42:15;;;;;;;13.53;11.60;;;8.50;99.90;;;;;;5033590;28;20178;-71
2020/12/19 03:44:40;;;;;;;12.80;10.87;;;8.50;99.90;;;;;;5046337;28;20281;-71
2020/12/19 03:47:06;;;;;;;14.73;11.23;;;8.50;99.90;;;;;;5052065;28;20194;-71
2020/12/19 03:49:32;;;;;;;14.80;11.80;;;8.50;99.90;;;;;;5052632;28;20207;-71
2020/12/19 03:51:57;;;;;;;13.17;10.63;;;8.50;99.90;;;;;;5044748;28;20468;-71
2020/12/19 03:54:23;;;;;;;12.50;9.90;;;8.50;99.90;;;;;;5041035;28;20202;-71
2020/12/19 03:56:48;;;;;;;12.20;10.57;;;8.40;99.90;;;;;;5039386;28;20216;-71
2020/12/19 03:59:14;;;;;;;14.73;11.00;;;8.40;99.90;;;;;;5052187;28;20279;-71
2020/12/19 04:01:39;;;;;;;11.27;10.07;;;8.40;99.90;;;;;;5052852;28;20175;-71
2020/12/19 04:04:05;;;;;;;12.73;10.87;;;8.40;99.90;;;;;;5044200;28;20189;-71
2020/12/19 04:06:31;;;;;;;12.40;10.63;;;8.30;99.90;;;;;;5052885;28;20217;-70
2020/12/19 04:08:57;;;;;;;11.77;9.80;;;8.30;99.90;;;;;;5052635;28;20393;-71
2020/12/19 04:11:22;;;;;;;12.20;10.47;;;8.30;99.90;;;;;;5042749;28;20220;-71
2020/12/19 04:13:48;;;;;;;14.50;11.37;;;8.30;99.90;;;;;;5032698;28;20822;-71
2020/12/19 04:16:14;;;;;;;11.33;10.10;;;8.30;99.90;;;;;;5032818;28;20768;-71
2020/12/19 04:18:39;;;;;;;14.40;11.97;;;8.30;99.90;;;;;;5044838;28;20504;-71
2020/12/19 04:21:06;;;;;;;13.10;11.40;;;8.30;99.90;;;;;;5052126;28;20202;-71
2020/12/19 04:23:32;;;;;;;13.33;11.93;;;8.30;99.90;;;;;;5052202;28;20194;-72
2020/12/19 04:25:59;;;;;;;12.43;10.57;;;8.30;99.90;;;;;;5037918;28;20447;-71
2020/12/19 04:28:24;;;;;;;13.83;11.03;;;8.30;99.90;;;;;;5033244;28;20520;-71
2020/12/19 04:30:50;;;;;;;15.47;11.20;;;8.30;99.90;;;;;;5032762;28;20946;-71
2020/12/19 04:33:17;;;;;;;14.87;11.30;;;8.20;99.90;;;;;;5049624;28;20186;-72
2020/12/19 04:35:42;;;;;;;13.03;11.60;;;8.20;99.90;;;;;;5052309;28;20499;-71
2020/12/19 04:38:08;;;;;;;14.10;11.30;;;8.20;99.90;;;;;;5052628;28;20421;-71
2020/12/19 04:40:33;;;;;;;14.40;12.10;;;8.20;99.90;;;;;;5034786;28;20266;-72
2020/12/19 04:43:00;;;;;;;13.07;10.87;;;8.20;99.90;;;;;;5034548;28;20189;-71
2020/12/19 04:45:26;;;;;;;17.10;12.47;;;8.20;99.90;;;;;;5044703;28;20201;-71
2020/12/19 04:47:51;;;;;;;14.13;11.83;;;8.20;99.90;;;;;;5055594;28;20454;-72
2020/12/19 04:50:19;;;;;;;12.30;10.90;;;8.20;99.90;;;;;;5055520;28;20655;-71
2020/12/19 04:52:44;;;;;;;13.20;10.73;;;8.20;99.90;;;;;;5046899;28;20186;-71
2020/12/19 04:55:10;;;;;;;16.17;11.67;;;8.20;99.90;;;;;;5040596;28;20831;-70
2020/12/19 04:57:36;;;;;;;13.47;11.50;;;8.20;99.90;;;;;;5054129;28;20181;-70
2020/12/19 05:00:04;;;;;;;12.53;11.07;;;8.30;99.90;;;;;;5050091;28;20169;-70
2020/12/19 05:02:29;;;;;;;15.93;12.53;;;8.30;99.90;;;;;;5053415;28;20232;-70
2020/12/19 05:05:03;;;;;;;15.27;12.47;;;8.20;99.90;;;;;;5055044;28;20421;-70
2020/12/19 05:07:29;;;;;;;13.90;11.80;;;8.20;99.90;;;;;;5047190;28;20540;-70
2020/12/19 05:09:55;;;;;;;12.93;10.73;;;8.30;99.90;;;;;;5054937;28;20430;-70
2020/12/19 05:12:20;;;;;;;13.40;12.00;;;8.30;99.90;;;;;;5047507;28;20188;-70
2020/12/19 05:14:49;;;;;;;15.13;11.67;;;8.20;99.90;;;;;;5045763;28;20482;-70
2020/12/19 05:17:15;;;;;;;14.00;12.00;;;8.20;99.90;;;;;;5055217;28;20248;-72
2020/12/19 05:19:41;;;;;;;14.30;12.20;;;8.30;99.90;;;;;;5054690;28;20858;-71
2020/12/19 05:22:06;;;;;;;14.73;12.27;;;8.20;99.90;;;;;;5041783;28;20430;-71
2020/12/19 05:24:36;;;;;;;15.60;12.80;;;8.20;99.90;;;;;;5035263;28;20187;-71
2020/12/19 05:27:05;;;;;;;14.33;11.73;;;8.20;99.90;;;;;;5035338;28;20218;-71
2020/12/19 05:29:32;;;;;;;16.37;13.30;;;8.20;99.90;;;;;;5051476;28;20932;-72
2020/12/19 05:31:59;;;;;;;17.33;13.60;;;8.20;99.90;;;;;;5054764;28;20459;-72
2020/12/19 05:34:27;;;;;;;15.77;13.03;;;8.20;99.90;;;;;;5054632;28;20437;-72
2020/12/19 05:36:57;;;;;;;19.00;12.57;;;8.20;99.90;;;;;;5035759;28;21008;-72
2020/12/19 05:39:23;;;;;;;15.57;12.17;;;8.20;99.90;;;;;;5035088;28;20501;-72
2020/12/19 05:41:49;;;;;;;16.77;12.23;;;8.20;99.90;;;;;;5037238;28;20480;-72
2020/12/19 05:44:19;;;;;;;15.73;12.50;;;8.20;99.90;;;;;;5054701;28;20424;-72
2020/12/19 05:46:45;;;;;;;15.00;12.63;;;8.20;99.90;;;;;;5036826;28;20538;-72
2020/12/19 05:49:11;;;;;;;15.87;12.70;;;8.10;99.90;;;;;;5039767;28;20513;-72
2020/12/19 05:51:40;;;;;;;15.03;12.00;;;8.10;99.90;;;;;;5049732;28;20210;-72
2020/12/19 05:54:07;;;;;;;15.83;14.17;;;8.20;99.90;;;;;;5042618;28;20421;-72
2020/12/19 05:56:40;;;;;;;15.43;13.30;;;8.20;99.90;;;;;;5043175;28;20474;-72
2020/12/19 05:59:10;;;;;;;15.27;12.70;;;8.20;99.90;;;;;;5053972;28;20413;-72
2020/12/19 06:01:41;;;;;;;14.23;12.43;;;8.20;99.90;;;;;;5054446;28;20451;-72
2020/12/19 06:04:08;;;;;;;16.03;13.37;;;8.20;99.90;;;;;;5054207;28;20763;-72
2020/12/19 06:06:38;;;;;;;15.47;13.07;;;8.20;99.90;;;;;;5038740;28;20426;-72
2020/12/19 06:09:04;;;;;;;20.97;14.20;;;8.20;99.90;;;;;;5034539;28;20430;-72
2020/12/19 06:11:38;;;;;;;17.87;14.10;;;8.20;99.90;;;;;;5034922;28;20486;-72
2020/12/19 06:14:07;;;;;;;17.50;13.07;;;8.20;99.90;;;;;;5042604;28;20414;-72
2020/12/19 06:16:39;;;;;;;18.20;14.30;;;8.30;99.90;;;;;;5049533;28;20517;-72
2020/12/19 06:19:24;;;;;;;17.80;13.93;;;8.30;99.90;;;;;;5051380;28;20547;-72
2020/12/19 06:21:52;;;;;;;15.53;13.60;;;8.30;99.90;;;;;;5051079;28;20476;-71
2020/12/19 06:24:40;;;;;;;15.53;13.27;;;8.30;99.90;;;;;;5038556;28;20797;-72
2020/12/19 06:27:34;;;;;;;18.23;15.00;;;8.30;99.90;;;;;;5043418;28;20422;-72
2020/12/19 06:30:02;;;;;;;17.93;11.90;;;8.30;99.90;;;;;;5032426;28;20449;-72
2020/12/19 06:32:29;;;;;;;17.30;12.80;;;8.30;99.90;;;;;;5034514;28;20417;-70
2020/12/19 06:35:07;;;;;;;18.60;13.97;;;8.30;99.90;;;;;;5041715;28;20457;-70
2020/12/19 06:37:43;;;;;;;19.10;13.70;;;8.40;99.90;;;;;;5034454;28;20428;-71
2020/12/19 06:40:12;;;;;;;17.80;12.90;;;8.40;99.90;;;;;;5050421;28;20410;-71
2020/12/19 06:42:39;;;;;;;15.60;11.97;;;8.40;99.90;;;;;;5053407;28;20440;-71
2020/12/19 06:45:26;;;;;;;16.70;13.27;;;8.30;99.90;;;;;;5036708;28;20951;-71
2020/12/19 06:47:52;;;;;;;15.43;12.47;;;8.40;99.90;;;;;;5040867;28;20511;-71
2020/12/19 06:50:19;;;;;;;16.10;12.70;;;8.40;99.90;;;;;;5050964;28;21108;-71
2020/12/19 06:52:54;;;;;;;19.87;14.13;;;8.40;99.90;;;;;;5034308;28;20475;-71
2020/12/19 06:55:21;;;;;;;15.57;13.63;;;8.40;99.90;;;;;;5035675;28;20495;-71
2020/12/19 06:57:57;;;;;;;17.13;13.93;;;8.40;99.90;;;;;;5053419;28;20588;-71
2020/12/19 07:00:28;;;;;;;17.03;13.63;;;8.40;99.90;;;;;;5043067;28;20763;-71
2020/12/19 07:02:54;;;;;;;18.80;14.57;;;8.50;99.90;;;;;;5047725;28;20416;-71
2020/12/19 07:05:25;;;;;;;24.97;14.40;;;8.50;99.90;;;;;;5035522;28;20793;-71
2020/12/19 07:07:52;;;;;;;16.90;13.07;;;8.50;99.90;;;;;;5032954;28;20468;-71
2020/12/19 07:10:34;;;;;;;16.57;13.93;;;8.50;99.90;;;;;;5049919;28;20436;-71
2020/12/19 07:13:00;;;;;;;16.70;13.70;;;8.50;99.90;;;;;;5033556;28;20426;-71
2020/12/19 07:15:42;;;;;;;18.30;13.93;;;8.50;99.90;;;;;;5049179;28;20464;-71
2020/12/19 07:18:27;;;;;;;17.33;13.30;;;8.50;99.90;;;;;;5050792;28;20417;-71
2020/12/19 07:21:04;;;;;;;18.30;14.13;;;8.50;99.90;;;;;;5045354;28;20417;-72
2020/12/19 07:23:31;;;;;;;16.50;12.70;;;8.50;99.90;;;;;;5044439;28;20425;-70
2020/12/19 07:25:57;;;;;;;16.97;13.37;;;8.60;99.90;;;;;;5052545;28;20998;-70
2020/12/19 07:28:23;;;;;;;18.37;13.80;;;8.60;99.90;;;;;;5037061;28;20505;-70
2020/12/19 07:30:48;;;;;;;15.03;13.27;;;8.60;99.90;;;;;;5044107;28;20272;-71
2020/12/19 07:33:14;;;;;;;20.00;13.43;;;8.70;99.90;;;;;;5043940;28;20198;-71
2020/12/19 07:35:40;;;;;;;15.83;12.90;;;8.70;99.90;;;;;;5037502;28;20261;-71
2020/12/19 07:38:06;;;;;;;17.13;13.03;;;8.70;99.90;;;;;;5036339;28;20795;-71
2020/12/19 07:40:32;;;;;;;17.50;12.90;;;8.70;99.90;;;;;;5049640;28;20177;-71
2020/12/19 07:43:08;;;;;;;16.60;13.33;;;8.70;99.90;;;;;;5046647;28;20663;-71
2020/12/19 07:45:35;;;;;;;17.00;12.57;;;8.70;99.90;;;;;;5042954;28;20443;-72
2020/12/19 07:48:01;;;;;;;16.63;13.03;;;8.70;99.90;;;;;;5045377;28;20447;-72
2020/12/19 07:50:29;;;;;;;15.17;12.93;;;8.70;99.90;;;;;;5030247;28;20423;-72
2020/12/19 07:53:04;;;;;;;16.77;14.10;;;8.80;99.90;;;;;;5049601;28;20519;-72
2020/12/19 07:55:31;;;;;;;14.77;12.23;;;8.80;99.90;;;;;;5051829;28;20463;-73
2020/12/19 07:57:57;;;;;;;17.40;13.87;;;8.80;99.90;;;;;;5042591;28;20428;-72
2020/12/19 08:00:24;;;;;;;17.00;13.77;;;8.80;99.90;;;;;;5049892;28;20829;-72
2020/12/19 08:02:51;;;;;;;15.83;13.40;;;8.80;99.90;;;;;;5035495;28;20463;-71
2020/12/19 08:05:17;;;;;;;19.20;13.40;;;8.80;99.90;;;;;;5038202;28;20461;-71
2020/12/19 08:07:42;;;;;;;17.60;13.27;;;8.80;99.90;;;;;;5033514;28;20775;-71
2020/12/19 08:10:10;;;;;;;14.33;11.90;;;8.80;99.90;;;;;;5049811;28;20846;-70
2020/12/19 08:12:37;;;;;;;15.97;13.73;;;8.80;99.90;;;;;;5034611;28;20189;-70
2020/12/19 08:15:18;;;;;;;14.60;11.60;;;8.80;99.90;;;;;;5051005;28;20809;-70
2020/12/19 08:17:50;;;;;;;14.83;11.90;;;8.80;99.90;;;;;;5036375;28;20417;-70
2020/12/19 08:20:19;;;;;;;15.67;11.70;;;8.90;99.90;;;;;;5047752;28;20499;-71
2020/12/19 08:22:46;;;;;;;15.80;13.17;;;8.90;99.90;;;;;;5050201;28;20810;-71
2020/12/19 08:25:12;;;;;;;16.37;12.00;;;8.90;99.90;;;;;;5046057;28;20441;-71
2020/12/19 08:27:45;;;;;;;17.70;13.73;;;8.90;99.90;;;;;;5046071;28;20429;-71
2020/12/19 08:30:12;;;;;;;14.93;12.10;;;8.90;99.90;;;;;;5054798;28;20421;-70
2020/12/19 08:32:49;;;;;;;17.60;12.80;;;8.90;99.90;;;;;;5040755;28;20707;-71
2020/12/19 08:35:29;;;;;;;15.17;12.40;;;8.90;99.90;;;;;;5047170;28;20982;-72
2020/12/19 08:38:06;;;;;;;14.70;11.80;;;9.00;99.90;;;;;;5043890;28;20464;-71
2020/12/19 08:40:43;;;;;;;13.93;11.20;;;8.90;99.90;;;;;;5042569;28;20432;-70
2020/12/19 08:43:11;;;;;;;14.30;11.53;;;9.00;99.90;;;;;;5048222;28;20448;-70
2020/12/19 08:45:46;;;;;;;13.27;11.63;;;9.00;99.90;;;;;;5049973;28;20445;-70
2020/12/19 08:48:22;;;;;;;14.20;11.50;;;8.90;99.90;;;;;;5047270;28;20463;-70
2020/12/19 08:50:49;;;;;;;11.50;10.13;;;9.00;99.90;;;;;;5044510;28;21065;-71
2020/12/19 08:53:22;;;;;;;12.87;11.50;;;9.00;99.90;;;;;;5053193;28;20417;-71
2020/12/19 08:55:49;;;;;;;12.20;10.90;;;9.00;99.90;;;;;;5048834;28;20483;-70
2020/12/19 08:58:22;;;;;;;12.23;10.93;;;9.00;99.90;;;;;;5055611;28;20409;-71
2020/12/19 09:00:48;;;;;;;16.93;11.03;;;9.00;99.90;;;;;;5047565;28;20515;-70
2020/12/19 09:03:13;;;;;;;16.73;11.60;;;9.10;99.90;;;;;;5055147;28;21033;-70
2020/12/19 09:05:44;;;;;;;20.57;11.90;;;9.10;99.90;;;;;;5054509;28;20197;-70
2020/12/19 09:08:11;;;;;;;11.77;10.57;;;9.20;99.90;;;;;;5046452;28;20460;-70
2020/12/19 09:10:38;;;;;;;14.90;11.23;;;9.30;99.90;;;;;;5046022;28;20421;-72
2020/12/19 09:13:19;;;;;;;14.53;10.50;;;9.30;99.90;;;;;;5041565;28;20425;-72
2020/12/19 09:15:45;;;;;;;11.97;10.40;;;9.30;99.90;;;;;;5049346;28;21174;-72
2020/12/19 09:18:15;;;;;;;14.43;9.87;;;9.30;99.90;;;;;;5033560;28;20435;-69
2020/12/19 09:20:40;;;;;;;12.23;9.50;;;9.40;99.90;;;;;;5043102;28;20851;-70
2020/12/19 09:23:06;;;;;;;10.60;9.50;;;9.50;99.90;;;;;;5085727;28;20452;-70
2020/12/19 09:25:34;;;;;;;13.80;10.40;;;9.60;99.90;;;;;;5052026;28;20200;-69
2020/12/19 09:28:00;;;;;;;11.10;9.57;;;9.60;99.90;;;;;;5051308;28;20191;-72
2020/12/19 09:30:26;;;;;;;13.10;10.10;;;9.60;99.90;;;;;;5045959;28;20779;-69
2020/12/19 09:32:51;;;;;;;10.50;9.17;;;9.60;99.90;;;;;;5031461;28;20637;-70
2020/12/19 09:35:17;;;;;;;14.07;10.43;;;9.60;99.90;;;;;;5050782;28;20299;-70
2020/12/19 09:37:43;;;;;;;10.53;9.07;;;9.60;99.90;;;;;;5044939;28;20177;-70
2020/12/19 09:40:08;;;;;;;11.80;9.60;;;9.60;99.90;;;;;;5033105;28;20604;-70
2020/12/19 09:42:34;;;;;;;12.90;10.90;;;9.70;99.90;;;;;;5033370;28;20172;-71
2020/12/19 09:44:59;;;;;;;11.60;8.83;;;9.70;99.90;;;;;;5040730;28;20180;-71
2020/12/19 09:47:25;;;;;;;11.23;9.90;;;9.70;99.90;;;;;;5041694;28;20209;-71
2020/12/19 09:49:50;;;;;;;10.70;9.60;;;9.70;99.90;;;;;;5035729;28;20189;-71
2020/12/19 09:52:16;;;;;;;12.50;8.83;;;9.80;99.90;;;;;;5045026;28;20217;-71
2020/12/19 09:54:41;;;;;;;16.73;9.57;;;9.80;99.90;;;;;;5054449;28;20652;-72
2020/12/19 09:57:07;;;;;;;11.40;8.87;;;9.80;99.90;;;;;;5054760;28;20251;-72
2020/12/19 09:59:32;;;;;;;12.87;9.43;;;9.80;99.90;;;;;;5044286;28;20561;-72
2020/12/19 10:01:58;;;;;;;10.50;8.70;;;9.80;99.90;;;;;;5034900;28;20248;-72
2020/12/19 10:04:23;;;;;;;11.20;9.10;;;9.80;99.90;;;;;;5034331;28;20257;-72
2020/12/19 10:06:50;;;;;;;9.47;8.40;;;9.90;99.90;;;;;;5045930;28;20197;-72
2020/12/19 10:09:16;;;;;;;10.27;8.20;;;10.00;99.90;;;;;;5054399;28;20180;-72
2020/12/19 10:11:41;;;;;;;10.60;9.50;;;10.00;99.90;;;;;;5053582;28;20519;-72
2020/12/19 10:14:07;;;;;;;9.93;7.93;;;10.00;99.90;;;;;;5041091;28;20570;-72
2020/12/19 10:16:32;;;;;;;10.27;8.80;;;10.10;99.90;;;;;;5034571;28;20614;-71
2020/12/19 10:18:58;;;;;;;9.57;8.57;;;10.10;99.90;;;;;;5034197;28;20179;-70
2020/12/19 10:21:23;;;;;;;9.43;7.40;;;10.20;99.90;;;;;;5048464;28;20184;-72
2020/12/19 10:23:49;;;;;;;9.97;8.13;;;10.20;99.90;;;;;;5053665;28;20496;-72
2020/12/19 10:26:14;;;;;;;8.97;7.80;;;10.30;99.90;;;;;;5054075;28;20208;-72
2020/12/19 10:28:40;;;;;;;8.77;7.73;;;10.30;99.90;;;;;;5038549;28;20193;-71
2020/12/19 10:31:05;;;;;;;8.30;7.50;;;10.30;99.90;;;;;;5034321;28;20202;-70
2020/12/19 10:33:31;;;;;;;9.00;7.90;;;10.40;99.90;;;;;;5047973;28;20182;-69
2020/12/19 10:35:56;;;;;;;9.40;7.53;;;10.40;99.90;;;;;;5036409;28;20214;-70
2020/12/19 10:38:22;;;;;;;8.10;7.30;;;10.50;99.90;;;;;;5034443;28;20184;-70
2020/12/19 10:40:47;;;;;;;8.40;6.80;;;10.50;99.90;;;;;;5033911;28;20652;-71
2020/12/19 10:43:13;;;;;;;8.00;7.20;;;10.50;99.90;;;;;;5051645;28;20260;-71
2020/12/19 10:45:38;;;;;;;9.77;6.67;;;10.60;99.90;;;;;;5053082;28;20657;-71
2020/12/19 10:48:04;;;;;;;9.10;7.00;;;10.60;99.90;;;;;;5053149;28;20667;-69
2020/12/19 10:50:29;;;;;;;7.50;6.70;;;10.60;99.90;;;;;;5045627;28;20245;-71
2020/12/19 10:52:55;;;;;;;7.90;7.10;;;10.70;99.90;;;;;;5053369;28;20181;-71
2020/12/19 10:55:20;;;;;;;7.90;7.13;;;10.70;99.90;;;;;;5051541;28;20210;-71
2020/12/19 10:57:46;;;;;;;8.10;6.30;;;10.70;99.90;;;;;;5034182;28;20206;-71
2020/12/19 11:00:11;;;;;;;7.80;7.07;;;10.80;99.90;;;;;;5035334;28;20597;-71
2020/12/19 11:02:37;;;;;;;8.10;6.87;;;10.90;99.90;;;;;;5033886;28;20182;-71
2020/12/19 11:05:03;;;;;;;7.13;6.40;;;10.90;99.90;;;;;;5035094;28;20614;-71
2020/12/19 11:07:28;;;;;;;7.60;6.33;;;10.90;99.90;;;;;;5042626;28;20232;-72
2020/12/19 11:09:54;;;;;;;8.30;7.10;;;11.00;99.90;;;;;;5053261;28;20182;-70
2020/12/19 11:12:19;;;;;;;7.93;6.60;;;11.00;99.90;;;;;;5052933;28;20533;-71
2020/12/19 11:14:45;;;;;;;7.87;6.97;;;11.00;99.90;;;;;;5042077;28;20198;-71
2020/12/19 11:17:10;;;;;;;7.17;6.47;;;11.00;99.90;;;;;;5032921;28;20195;-72
2020/12/19 11:19:36;;;;;;;6.20;5.70;;;11.00;99.90;;;;;;5042178;28;20173;-71
2020/12/19 11:22:02;;;;;;;6.70;6.00;;;11.10;99.90;;;;;;5049550;28;20174;-71
2020/12/19 11:24:28;;;;;;;6.50;5.90;;;11.20;99.90;;;;;;5042766;28;20574;-70
2020/12/19 11:26:53;;;;;;;7.83;6.60;;;11.20;99.90;;;;;;5061648;28;20212;-70
2020/12/19 11:29:19;;;;;;;7.33;6.47;;;11.30;99.90;;;;;;5051851;28;20181;-71
2020/12/19 11:31:44;;;;;;;6.70;6.10;;;11.40;99.90;;;;;;5052945;28;20629;-71
2020/12/19 11:34:12;;;;;;;6.70;6.00;;;11.30;99.90;;;;;;5042073;28;20195;-70
2020/12/19 11:36:39;;;;;;;6.57;5.63;;;11.40;99.90;;;;;;5037204;28;20607;-71
2020/12/19 11:39:10;;;;;;;5.93;5.33;;;11.40;99.90;;;;;;5047246;28;20528;-72
2020/12/19 11:41:37;;;;;;;6.37;5.77;;;11.40;99.90;;;;;;5060653;28;20428;-73
2020/12/19 11:44:03;;;;;;;6.10;5.60;;;11.40;99.90;;;;;;5051069;28;20485;-73
2020/12/19 11:46:30;;;;;;;7.70;5.40;;;11.40;99.90;;;;;;5052541;28;20464;-73
2020/12/19 11:48:55;;;;;;;5.97;5.37;;;11.40;99.90;;;;;;5057004;28;20504;-73
2020/12/19 11:51:31;;;;;;;6.70;5.90;;;11.30;99.90;;;;;;5056177;28;20882;-71
2020/12/19 11:53:57;;;;;;;6.07;5.00;;;11.40;99.90;;;;;;5058776;28;20193;-72
2020/12/19 11:56:23;;;;;;;5.60;5.10;;;11.30;99.90;;;;;;5054950;28;20464;-72
2020/12/19 11:58:49;;;;;;;6.77;5.77;;;11.30;99.90;;;;;;5050744;28;20428;-72
2020/12/19 12:01:14;;;;;;;5.80;5.20;;;11.40;99.90;;;;;;5056504;28;20613;-72
2020/12/19 12:03:40;;;;;;;6.73;6.13;;;11.40;99.90;;;;;;5053593;28;20166;-72
2020/12/19 12:06:05;;;;;;;5.83;5.17;;;11.40;99.90;;;;;;5044303;28;20240;-72
2020/12/19 12:08:31;;;;;;;7.10;5.17;;;11.40;99.90;;;;;;5058542;28;20217;-72
2020/12/19 12:10:56;;;;;;;6.80;4.90;;;11.40;99.90;;;;;;5052420;28;20221;-73
2020/12/19 12:13:22;;;;;;;7.17;5.43;;;11.50;99.90;;;;;;5048514;28;20186;-73
2020/12/19 12:15:47;;;;;;;7.13;5.10;;;11.50;99.90;;;;;;5051308;28;20210;-72
2020/12/19 12:18:13;;;;;;;5.17;4.73;;;11.50;99.90;;;;;;5054355;28;20672;-71
2020/12/19 12:20:38;;;;;;;6.87;5.47;;;11.50;99.90;;;;;;5056300;28;20166;-72
2020/12/19 12:23:04;;;;;;;5.23;4.83;;;11.60;99.90;;;;;;5054149;28;20178;-72
2020/12/19 12:25:29;;;;;;;9.13;5.37;;;11.60;99.90;;;;;;5051465;28;20206;-72
2020/12/19 12:27:55;;;;;;;7.80;5.90;;;11.60;99.90;;;;;;5056005;28;20182;-72
2020/12/19 12:30:21;;;;;;;5.90;5.40;;;11.70;99.90;;;;;;5052020;28;20217;-72
2020/12/19 12:32:46;;;;;;;6.70;5.80;;;11.70;99.90;;;;;;5047760;28;20221;-72
2020/12/19 12:35:12;;;;;;;5.53;5.03;;;11.70;99.90;;;;;;5048983;28;20201;-72
2020/12/19 12:37:38;;;;;;;5.80;5.30;;;11.80;99.90;;;;;;5054034;28;20277;-72
2020/12/19 12:40:04;;;;;;;4.93;4.37;;;11.80;99.90;;;;;;5052625;28;20232;-72
2020/12/19 12:42:29;;;;;;;5.10;4.57;;;11.80;99.90;;;;;;5045892;28;20546;-73